sensor_id;sensor_type;location;lat;lon;timestamp;temperature;humidity
53146;DHT22;39042;53.150;5.898;2023-06-14T00:01:37;15.70;93.40
53146;DHT22;39042;53.150;5.898;2023-06-14T00:04:04;15.60;93.70
53146;DHT22;39042;53.150;5.898;2023-06-14T00:06:34;15.50;93.90
53146;DHT22;39042;53.150;5.898;2023-06-14T00:09:00;15.50;94.20
53146;DHT22;39042;53.150;5.898;2023-06-14T00:11:26;15.40;94.40
53146;DHT22;39042;53.150;5.898;2023-06-14T00:13:52;15.40;94.70
53146;DHT22;39042;53.150;5.898;2023-06-14T00:16:18;15.30;94.80
53146;DHT22;39042;53.150;5.898;2023-06-14T00:18:45;15.30;95.00
53146;DHT22;39042;53.150;5.898;2023-06-14T00:21:11;15.20;95.20
53146;DHT22;39042;53.150;5.898;2023-06-14T00:23:37;15.10;95.40
53146;DHT22;39042;53.150;5.898;2023-06-14T00:26:03;15.10;95.60
53146;DHT22;39042;53.150;5.898;2023-06-14T00:28:29;15.00;95.70
53146;DHT22;39042;53.150;5.898;2023-06-14T00:30:55;15.00;95.90
53146;DHT22;39042;53.150;5.898;2023-06-14T00:33:21;14.90;95.90
53146;DHT22;39042;53.150;5.898;2023-06-14T00:35:47;14.90;96.10
53146;DHT22;39042;53.150;5.898;2023-06-14T00:38:13;14.80;96.20
53146;DHT22;39042;53.150;5.898;2023-06-14T00:40:40;14.80;96.30
53146;DHT22;39042;53.150;5.898;2023-06-14T00:43:05;14.80;96.40
53146;DHT22;39042;53.150;5.898;2023-06-14T00:45:31;14.70;96.50
53146;DHT22;39042;53.150;5.898;2023-06-14T00:48:02;14.70;96.60
53146;DHT22;39042;53.150;5.898;2023-06-14T00:50:28;14.70;96.90
53146;DHT22;39042;53.150;5.898;2023-06-14T00:52:57;14.70;97.00
53146;DHT22;39042;53.150;5.898;2023-06-14T00:55:24;14.70;97.10
53146;DHT22;39042;53.150;5.898;2023-06-14T00:57:49;14.60;97.70
53146;DHT22;39042;53.150;5.898;2023-06-14T01:00:16;14.60;97.40
53146;DHT22;39042;53.150;5.898;2023-06-14T01:02:42;14.60;98.20
53146;DHT22;39042;53.150;5.898;2023-06-14T01:05:09;14.60;97.80
53146;DHT22;39042;53.150;5.898;2023-06-14T01:10:47;14.50;98.20
53146;DHT22;39042;53.150;5.898;2023-06-14T01:13:33;14.50;98.40
53146;DHT22;39042;53.150;5.898;2023-06-14T01:16:00;14.40;98.70
53146;DHT22;39042;53.150;5.898;2023-06-14T01:18:28;14.40;98.90
53146;DHT22;39042;53.150;5.898;2023-06-14T01:20:55;14.40;99.20
53146;DHT22;39042;53.150;5.898;2023-06-14T01:23:24;14.40;99.40
53146;DHT22;39042;53.150;5.898;2023-06-14T01:25:59;14.30;99.60
53146;DHT22;39042;53.150;5.898;2023-06-14T01:28:27;14.40;99.90
53146;DHT22;39042;53.150;5.898;2023-06-14T01:31:00;14.40;99.90
53146;DHT22;39042;53.150;5.898;2023-06-14T01:33:29;14.30;99.90
53146;DHT22;39042;53.150;5.898;2023-06-14T01:35:58;14.30;99.90
53146;DHT22;39042;53.150;5.898;2023-06-14T01:38:25;14.30;99.90
53146;DHT22;39042;53.150;5.898;2023-06-14T01:40:53;14.30;99.90
53146;DHT22;39042;53.150;5.898;2023-06-14T01:43:20;14.20;99.90
53146;DHT22;39042;53.150;5.898;2023-06-14T01:45:48;14.20;99.90
53146;DHT22;39042;53.150;5.898;2023-06-14T01:48:14;14.20;99.90
53146;DHT22;39042;53.150;5.898;2023-06-14T01:50:40;14.10;99.90
53146;DHT22;39042;53.150;5.898;2023-06-14T01:53:10;14.10;99.90
53146;DHT22;39042;53.150;5.898;2023-06-14T01:55:37;14.10;99.90
53146;DHT22;39042;53.150;5.898;2023-06-14T01:58:06;14.00;99.90
53146;DHT22;39042;53.150;5.898;2023-06-14T02:00:32;14.00;99.90
53146;DHT22;39042;53.150;5.898;2023-06-14T02:02:58;14.00;99.90
53146;DHT22;39042;53.150;5.898;2023-06-14T02:05:25;13.90;99.90
53146;DHT22;39042;53.150;5.898;2023-06-14T02:07:52;13.90;99.90
53146;DHT22;39042;53.150;5.898;2023-06-14T02:10:19;13.90;99.90
53146;DHT22;39042;53.150;5.898;2023-06-14T02:12:46;13.90;99.90
53146;DHT22;39042;53.150;5.898;2023-06-14T02:15:12;14.00;99.90
53146;DHT22;39042;53.150;5.898;2023-06-14T02:17:46;14.00;99.90
53146;DHT22;39042;53.150;5.898;2023-06-14T02:20:16;14.00;99.90
53146;DHT22;39042;53.150;5.898;2023-06-14T02:22:44;14.10;99.90
53146;DHT22;39042;53.150;5.898;2023-06-14T02:25:10;14.10;99.90
53146;DHT22;39042;53.150;5.898;2023-06-14T02:27:36;14.10;99.90
53146;DHT22;39042;53.150;5.898;2023-06-14T02:30:03;14.10;99.90
53146;DHT22;39042;53.150;5.898;2023-06-14T02:32:32;14.10;99.90
53146;DHT22;39042;53.150;5.898;2023-06-14T02:34:59;14.00;99.90
53146;DHT22;39042;53.150;5.898;2023-06-14T02:37:26;14.00;99.90
53146;DHT22;39042;53.150;5.898;2023-06-14T02:39:52;14.00;99.90
53146;DHT22;39042;53.150;5.898;2023-06-14T02:42:18;14.00;99.90
53146;DHT22;39042;53.150;5.898;2023-06-14T02:44:44;14.00;99.90
53146;DHT22;39042;53.150;5.898;2023-06-14T02:47:12;14.00;99.90
53146;DHT22;39042;53.150;5.898;2023-06-14T02:49:38;13.90;99.90
53146;DHT22;39042;53.150;5.898;2023-06-14T02:52:04;13.90;99.90
53146;DHT22;39042;53.150;5.898;2023-06-14T02:54:30;13.90;99.90
53146;DHT22;39042;53.150;5.898;2023-06-14T02:56:58;13.90;99.90
53146;DHT22;39042;53.150;5.898;2023-06-14T02:59:24;13.90;99.90
53146;DHT22;39042;53.150;5.898;2023-06-14T03:01:52;13.80;99.90
53146;DHT22;39042;53.150;5.898;2023-06-14T03:04:18;13.80;99.90
53146;DHT22;39042;53.150;5.898;2023-06-14T03:06:45;13.80;99.90
53146;DHT22;39042;53.150;5.898;2023-06-14T03:09:16;13.70;99.90
53146;DHT22;39042;53.150;5.898;2023-06-14T03:11:42;13.70;99.90
53146;DHT22;39042;53.150;5.898;2023-06-14T03:14:09;13.70;99.90
53146;DHT22;39042;53.150;5.898;2023-06-14T03:16:37;13.70;99.90
53146;DHT22;39042;53.150;5.898;2023-06-14T03:19:03;13.70;99.90
53146;DHT22;39042;53.150;5.898;2023-06-14T03:21:31;13.70;99.90
53146;DHT22;39042;53.150;5.898;2023-06-14T03:24:00;13.70;99.90
53146;DHT22;39042;53.150;5.898;2023-06-14T03:26:27;13.70;99.90
53146;DHT22;39042;53.150;5.898;2023-06-14T03:28:55;13.70;99.90
53146;DHT22;39042;53.150;5.898;2023-06-14T03:31:22;13.70;99.90
53146;DHT22;39042;53.150;5.898;2023-06-14T03:33:49;13.70;99.90
53146;DHT22;39042;53.150;5.898;2023-06-14T03:36:16;13.70;99.90
53146;DHT22;39042;53.150;5.898;2023-06-14T03:38:43;13.70;99.90
53146;DHT22;39042;53.150;5.898;2023-06-14T03:41:10;13.70;99.90
53146;DHT22;39042;53.150;5.898;2023-06-14T03:43:36;13.80;99.90
53146;DHT22;39042;53.150;5.898;2023-06-14T03:46:02;14.10;99.90
53146;DHT22;39042;53.150;5.898;2023-06-14T03:48:30;14.50;99.90
53146;DHT22;39042;53.150;5.898;2023-06-14T03:50:55;14.80;99.90
53146;DHT22;39042;53.150;5.898;2023-06-14T03:53:22;15.00;99.90
53146;DHT22;39042;53.150;5.898;2023-06-14T03:55:53;15.20;99.90
53146;DHT22;39042;53.150;5.898;2023-06-14T03:58:22;15.50;99.90
53146;DHT22;39042;53.150;5.898;2023-06-14T04:00:49;15.80;99.90
53146;DHT22;39042;53.150;5.898;2023-06-14T04:03:15;16.10;99.90
53146;DHT22;39042;53.150;5.898;2023-06-14T04:05:42;16.40;99.90
53146;DHT22;39042;53.150;5.898;2023-06-14T04:08:08;16.70;99.90
53146;DHT22;39042;53.150;5.898;2023-06-14T04:10:35;17.00;99.90
53146;DHT22;39042;53.150;5.898;2023-06-14T04:13:01;17.40;99.90
53146;DHT22;39042;53.150;5.898;2023-06-14T04:15:27;17.70;99.90
53146;DHT22;39042;53.150;5.898;2023-06-14T04:17:57;17.90;99.90
53146;DHT22;39042;53.150;5.898;2023-06-14T04:20:23;17.90;99.90
53146;DHT22;39042;53.150;5.898;2023-06-14T04:22:52;18.10;99.90
53146;DHT22;39042;53.150;5.898;2023-06-14T04:25:19;18.20;99.90
53146;DHT22;39042;53.150;5.898;2023-06-14T04:27:46;18.30;99.90
53146;DHT22;39042;53.150;5.898;2023-06-14T04:30:13;18.40;99.90
53146;DHT22;39042;53.150;5.898;2023-06-14T04:32:47;18.60;99.90
53146;DHT22;39042;53.150;5.898;2023-06-14T04:35:15;18.90;99.60
53146;DHT22;39042;53.150;5.898;2023-06-14T04:37:43;19.10;98.80
53146;DHT22;39042;53.150;5.898;2023-06-14T04:40:11;19.30;98.20
53146;DHT22;39042;53.150;5.898;2023-06-14T04:42:38;19.30;97.80
53146;DHT22;39042;53.150;5.898;2023-06-14T04:45:08;18.90;98.00
53146;DHT22;39042;53.150;5.898;2023-06-14T04:47:36;18.50;98.60
53146;DHT22;39042;53.150;5.898;2023-06-14T04:50:05;18.10;99.50
53146;DHT22;39042;53.150;5.898;2023-06-14T04:52:31;17.90;99.90
53146;DHT22;39042;53.150;5.898;2023-06-14T04:54:59;17.80;99.90
53146;DHT22;39042;53.150;5.898;2023-06-14T04:57:26;17.60;99.90
53146;DHT22;39042;53.150;5.898;2023-06-14T04:59:55;17.50;99.90
53146;DHT22;39042;53.150;5.898;2023-06-14T05:02:25;17.30;99.90
53146;DHT22;39042;53.150;5.898;2023-06-14T05:04:52;17.20;99.90
53146;DHT22;39042;53.150;5.898;2023-06-14T05:07:20;17.10;99.90
53146;DHT22;39042;53.150;5.898;2023-06-14T05:09:50;17.00;99.90
53146;DHT22;39042;53.150;5.898;2023-06-14T05:12:16;16.80;99.90
53146;DHT22;39042;53.150;5.898;2023-06-14T05:14:45;16.80;99.90
53146;DHT22;39042;53.150;5.898;2023-06-14T05:17:11;16.70;99.90
53146;DHT22;39042;53.150;5.898;2023-06-14T05:19:37;16.80;99.90
53146;DHT22;39042;53.150;5.898;2023-06-14T05:22:03;16.80;99.90
53146;DHT22;39042;53.150;5.898;2023-06-14T05:24:29;16.90;99.90
53146;DHT22;39042;53.150;5.898;2023-06-14T05:26:58;16.90;99.90
53146;DHT22;39042;53.150;5.898;2023-06-14T05:29:23;17.10;99.90
53146;DHT22;39042;53.150;5.898;2023-06-14T05:31:49;17.20;99.90
53146;DHT22;39042;53.150;5.898;2023-06-14T05:34:15;17.40;99.90
53146;DHT22;39042;53.150;5.898;2023-06-14T05:36:41;17.40;99.90
53146;DHT22;39042;53.150;5.898;2023-06-14T05:39:07;17.40;99.90
53146;DHT22;39042;53.150;5.898;2023-06-14T05:41:34;17.50;99.90
53146;DHT22;39042;53.150;5.898;2023-06-14T05:43:59;17.60;99.90
53146;DHT22;39042;53.150;5.898;2023-06-14T05:46:26;17.70;99.90
53146;DHT22;39042;53.150;5.898;2023-06-14T05:48:52;17.70;99.90
53146;DHT22;39042;53.150;5.898;2023-06-14T05:51:18;17.80;99.90
53146;DHT22;39042;53.150;5.898;2023-06-14T05:53:45;17.80;99.90
53146;DHT22;39042;53.150;5.898;2023-06-14T05:56:12;17.80;99.90
53146;DHT22;39042;53.150;5.898;2023-06-14T05:58:38;17.90;99.90
53146;DHT22;39042;53.150;5.898;2023-06-14T06:01:04;18.00;99.90
53146;DHT22;39042;53.150;5.898;2023-06-14T06:03:30;18.10;99.90
53146;DHT22;39042;53.150;5.898;2023-06-14T06:05:55;18.10;99.90
53146;DHT22;39042;53.150;5.898;2023-06-14T06:08:21;18.10;99.90
53146;DHT22;39042;53.150;5.898;2023-06-14T06:10:47;18.20;99.90
53146;DHT22;39042;53.150;5.898;2023-06-14T06:13:13;18.30;99.90
53146;DHT22;39042;53.150;5.898;2023-06-14T06:15:39;18.30;99.90
53146;DHT22;39042;53.150;5.898;2023-06-14T06:18:05;18.40;99.90
53146;DHT22;39042;53.150;5.898;2023-06-14T06:20:30;18.50;99.90
53146;DHT22;39042;53.150;5.898;2023-06-14T06:22:57;18.60;99.90
53146;DHT22;39042;53.150;5.898;2023-06-14T06:25:24;18.70;99.90
53146;DHT22;39042;53.150;5.898;2023-06-14T06:27:52;18.80;99.40
53146;DHT22;39042;53.150;5.898;2023-06-14T06:30:19;18.90;99.30
53146;DHT22;39042;53.150;5.898;2023-06-14T06:32:46;18.90;98.70
53146;DHT22;39042;53.150;5.898;2023-06-14T06:35:13;18.90;98.50
53146;DHT22;39042;53.150;5.898;2023-06-14T06:37:41;19.00;98.70
53146;DHT22;39042;53.150;5.898;2023-06-14T06:40:07;19.10;98.60
53146;DHT22;39042;53.150;5.898;2023-06-14T06:42:34;19.20;98.10
53146;DHT22;39042;53.150;5.898;2023-06-14T06:45:03;19.30;98.00
53146;DHT22;39042;53.150;5.898;2023-06-14T06:47:29;19.30;97.70
53146;DHT22;39042;53.150;5.898;2023-06-14T06:49:55;19.20;97.30
53146;DHT22;39042;53.150;5.898;2023-06-14T06:52:20;19.20;97.40
53146;DHT22;39042;53.150;5.898;2023-06-14T06:54:46;19.30;97.10
53146;DHT22;39042;53.150;5.898;2023-06-14T06:57:12;19.40;97.30
53146;DHT22;39042;53.150;5.898;2023-06-14T06:59:39;19.50;97.00
53146;DHT22;39042;53.150;5.898;2023-06-14T07:02:05;19.50;96.50
53146;DHT22;39042;53.150;5.898;2023-06-14T07:04:31;19.60;96.70
53146;DHT22;39042;53.150;5.898;2023-06-14T07:06:57;19.60;96.70
53146;DHT22;39042;53.150;5.898;2023-06-14T07:09:23;19.70;96.60
53146;DHT22;39042;53.150;5.898;2023-06-14T07:11:50;19.80;96.60
53146;DHT22;39042;53.150;5.898;2023-06-14T07:14:16;19.80;96.20
53146;DHT22;39042;53.150;5.898;2023-06-14T07:16:42;19.90;96.00
53146;DHT22;39042;53.150;5.898;2023-06-14T07:19:08;19.90;95.80
53146;DHT22;39042;53.150;5.898;2023-06-14T07:21:34;19.90;95.50
53146;DHT22;39042;53.150;5.898;2023-06-14T07:24:04;20.00;95.70
53146;DHT22;39042;53.150;5.898;2023-06-14T07:26:32;20.10;95.50
53146;DHT22;39042;53.150;5.898;2023-06-14T07:28:57;20.20;95.30
53146;DHT22;39042;53.150;5.898;2023-06-14T07:31:23;20.30;94.90
53146;DHT22;39042;53.150;5.898;2023-06-14T07:33:49;20.40;94.70
53146;DHT22;39042;53.150;5.898;2023-06-14T07:36:15;20.50;94.50
53146;DHT22;39042;53.150;5.898;2023-06-14T07:38:41;20.50;94.20
53146;DHT22;39042;53.150;5.898;2023-06-14T07:41:07;20.60;93.90
53146;DHT22;39042;53.150;5.898;2023-06-14T07:43:33;20.60;93.70
53146;DHT22;39042;53.150;5.898;2023-06-14T07:45:59;20.60;93.70
53146;DHT22;39042;53.150;5.898;2023-06-14T07:48:25;20.70;93.50
53146;DHT22;39042;53.150;5.898;2023-06-14T07:50:51;20.80;93.50
53146;DHT22;39042;53.150;5.898;2023-06-14T07:53:16;20.80;93.50
53146;DHT22;39042;53.150;5.898;2023-06-14T07:55:42;20.90;93.60
53146;DHT22;39042;53.150;5.898;2023-06-14T07:58:09;21.00;93.20
53146;DHT22;39042;53.150;5.898;2023-06-14T08:00:35;21.10;93.10
53146;DHT22;39042;53.150;5.898;2023-06-14T08:03:02;21.20;92.90
53146;DHT22;39042;53.150;5.898;2023-06-14T08:05:28;21.30;92.30
53146;DHT22;39042;53.150;5.898;2023-06-14T08:07:54;21.30;92.10
53146;DHT22;39042;53.150;5.898;2023-06-14T08:10:21;21.40;92.20
53146;DHT22;39042;53.150;5.898;2023-06-14T08:12:47;21.50;91.90
53146;DHT22;39042;53.150;5.898;2023-06-14T08:15:17;21.60;92.00
53146;DHT22;39042;53.150;5.898;2023-06-14T08:17:45;21.60;91.70
53146;DHT22;39042;53.150;5.898;2023-06-14T08:20:12;21.70;91.90
53146;DHT22;39042;53.150;5.898;2023-06-14T08:22:39;21.80;91.60
53146;DHT22;39042;53.150;5.898;2023-06-14T08:25:08;21.80;91.10
53146;DHT22;39042;53.150;5.898;2023-06-14T08:27:34;21.80;91.10
53146;DHT22;39042;53.150;5.898;2023-06-14T08:30:00;21.80;91.10
53146;DHT22;39042;53.150;5.898;2023-06-14T08:32:26;21.90;90.60
53146;DHT22;39042;53.150;5.898;2023-06-14T08:34:52;22.00;90.60
53146;DHT22;39042;53.150;5.898;2023-06-14T08:37:18;22.00;91.20
53146;DHT22;39042;53.150;5.898;2023-06-14T08:39:44;22.00;91.00
53146;DHT22;39042;53.150;5.898;2023-06-14T08:42:11;22.10;90.90
53146;DHT22;39042;53.150;5.898;2023-06-14T08:44:37;22.10;90.60
53146;DHT22;39042;53.150;5.898;2023-06-14T08:47:05;22.20;90.10
53146;DHT22;39042;53.150;5.898;2023-06-14T08:49:31;22.20;90.30
53146;DHT22;39042;53.150;5.898;2023-06-14T08:51:58;22.20;90.50
53146;DHT22;39042;53.150;5.898;2023-06-14T08:54:28;22.20;89.00
53146;DHT22;39042;53.150;5.898;2023-06-14T08:56:58;22.20;90.20
53146;DHT22;39042;53.150;5.898;2023-06-14T08:59:25;22.20;90.10
53146;DHT22;39042;53.150;5.898;2023-06-14T09:01:54;22.30;90.20
53146;DHT22;39042;53.150;5.898;2023-06-14T09:04:20;22.30;89.50
53146;DHT22;39042;53.150;5.898;2023-06-14T09:06:47;22.20;88.90
53146;DHT22;39042;53.150;5.898;2023-06-14T09:09:25;22.20;89.60
53146;DHT22;39042;53.150;5.898;2023-06-14T09:11:51;22.30;89.00
53146;DHT22;39042;53.150;5.898;2023-06-14T09:14:23;22.30;88.40
53146;DHT22;39042;53.150;5.898;2023-06-14T09:16:53;22.30;88.20
53146;DHT22;39042;53.150;5.898;2023-06-14T09:19:25;22.40;88.00
53146;DHT22;39042;53.150;5.898;2023-06-14T09:21:52;22.50;88.00
53146;DHT22;39042;53.150;5.898;2023-06-14T09:24:19;22.50;87.60
53146;DHT22;39042;53.150;5.898;2023-06-14T09:26:48;22.50;87.80
53146;DHT22;39042;53.150;5.898;2023-06-14T09:29:17;22.50;88.00
53146;DHT22;39042;53.150;5.898;2023-06-14T09:31:45;22.60;88.90
53146;DHT22;39042;53.150;5.898;2023-06-14T09:34:11;22.70;87.50
53146;DHT22;39042;53.150;5.898;2023-06-14T09:36:40;22.70;86.50
53146;DHT22;39042;53.150;5.898;2023-06-14T09:39:08;22.70;86.00
53146;DHT22;39042;53.150;5.898;2023-06-14T09:41:35;22.70;86.60
53146;DHT22;39042;53.150;5.898;2023-06-14T09:44:02;22.80;86.50
53146;DHT22;39042;53.150;5.898;2023-06-14T09:46:30;22.80;86.60
53146;DHT22;39042;53.150;5.898;2023-06-14T09:48:56;22.90;86.40
53146;DHT22;39042;53.150;5.898;2023-06-14T09:51:23;23.00;86.30
53146;DHT22;39042;53.150;5.898;2023-06-14T09:53:50;23.00;86.10
53146;DHT22;39042;53.150;5.898;2023-06-14T09:56:37;23.00;86.20
53146;DHT22;39042;53.150;5.898;2023-06-14T09:59:04;23.00;86.70
53146;DHT22;39042;53.150;5.898;2023-06-14T10:01:31;23.00;86.40
53146;DHT22;39042;53.150;5.898;2023-06-14T10:04:03;23.10;86.00
53146;DHT22;39042;53.150;5.898;2023-06-14T10:06:32;23.10;84.10
53146;DHT22;39042;53.150;5.898;2023-06-14T10:09:04;23.10;85.10
53146;DHT22;39042;53.150;5.898;2023-06-14T10:11:31;23.10;84.40
53146;DHT22;39042;53.150;5.898;2023-06-14T10:13:58;23.20;85.10
53146;DHT22;39042;53.150;5.898;2023-06-14T10:17:00;23.30;84.80
53146;DHT22;39042;53.150;5.898;2023-06-14T10:19:44;23.40;84.90
53146;DHT22;39042;53.150;5.898;2023-06-14T10:22:18;23.40;85.40
53146;DHT22;39042;53.150;5.898;2023-06-14T10:24:45;23.40;85.60
53146;DHT22;39042;53.150;5.898;2023-06-14T10:27:13;23.50;85.40
53146;DHT22;39042;53.150;5.898;2023-06-14T10:30:07;23.50;83.90
53146;DHT22;39042;53.150;5.898;2023-06-14T10:32:33;23.60;82.90
53146;DHT22;39042;53.150;5.898;2023-06-14T10:35:00;23.40;83.90
53146;DHT22;39042;53.150;5.898;2023-06-14T10:37:26;23.40;83.50
53146;DHT22;39042;53.150;5.898;2023-06-14T10:39:52;23.30;84.20
53146;DHT22;39042;53.150;5.898;2023-06-14T10:42:21;23.30;83.70
53146;DHT22;39042;53.150;5.898;2023-06-14T10:44:53;23.20;83.80
53146;DHT22;39042;53.150;5.898;2023-06-14T10:49:50;23.30;83.20
53146;DHT22;39042;53.150;5.898;2023-06-14T10:52:21;23.30;83.50
53146;DHT22;39042;53.150;5.898;2023-06-14T10:55:00;23.30;85.50
53146;DHT22;39042;53.150;5.898;2023-06-14T10:57:27;23.40;86.30
53146;DHT22;39042;53.150;5.898;2023-06-14T10:59:53;23.50;85.30
53146;DHT22;39042;53.150;5.898;2023-06-14T11:05:04;23.40;83.90
53146;DHT22;39042;53.150;5.898;2023-06-14T11:10:39;23.50;83.30
53146;DHT22;39042;53.150;5.898;2023-06-14T11:13:07;23.40;83.00
53146;DHT22;39042;53.150;5.898;2023-06-14T11:15:35;23.40;83.30
53146;DHT22;39042;53.150;5.898;2023-06-14T11:18:02;23.40;83.20
53146;DHT22;39042;53.150;5.898;2023-06-14T11:20:31;23.40;83.00
53146;DHT22;39042;53.150;5.898;2023-06-14T11:22:57;23.40;83.30
53146;DHT22;39042;53.150;5.898;2023-06-14T11:25:24;23.50;83.60
53146;DHT22;39042;53.150;5.898;2023-06-14T11:27:50;23.50;83.30
53146;DHT22;39042;53.150;5.898;2023-06-14T11:30:17;23.50;84.00
53146;DHT22;39042;53.150;5.898;2023-06-14T11:32:46;23.50;84.70
53146;DHT22;39042;53.150;5.898;2023-06-14T11:35:13;23.60;84.60
53146;DHT22;39042;53.150;5.898;2023-06-14T11:37:39;23.70;85.40
53146;DHT22;39042;53.150;5.898;2023-06-14T11:40:08;23.80;84.70
53146;DHT22;39042;53.150;5.898;2023-06-14T11:42:36;23.70;83.40
53146;DHT22;39042;53.150;5.898;2023-06-14T11:45:03;23.70;83.90
53146;DHT22;39042;53.150;5.898;2023-06-14T11:47:35;23.80;84.70
53146;DHT22;39042;53.150;5.898;2023-06-14T11:50:05;23.80;83.90
53146;DHT22;39042;53.150;5.898;2023-06-14T11:52:31;23.80;84.10
53146;DHT22;39042;53.150;5.898;2023-06-14T11:54:57;23.80;83.60
53146;DHT22;39042;53.150;5.898;2023-06-14T11:57:24;23.70;83.70
53146;DHT22;39042;53.150;5.898;2023-06-14T11:59:50;23.80;84.80
53146;DHT22;39042;53.150;5.898;2023-06-14T12:02:18;23.90;83.90
53146;DHT22;39042;53.150;5.898;2023-06-14T12:04:46;24.10;83.80
53146;DHT22;39042;53.150;5.898;2023-06-14T12:07:14;24.10;83.90
53146;DHT22;39042;53.150;5.898;2023-06-14T12:09:41;24.20;84.50
53146;DHT22;39042;53.150;5.898;2023-06-14T12:12:12;24.30;83.90
53146;DHT22;39042;53.150;5.898;2023-06-14T12:14:41;24.40;82.40
53146;DHT22;39042;53.150;5.898;2023-06-14T12:17:07;24.40;81.90
53146;DHT22;39042;53.150;5.898;2023-06-14T12:19:41;24.30;82.10
53146;DHT22;39042;53.150;5.898;2023-06-14T12:22:09;24.20;82.90
53146;DHT22;39042;53.150;5.898;2023-06-14T12:24:35;24.30;83.30
53146;DHT22;39042;53.150;5.898;2023-06-14T12:27:02;24.50;83.00
53146;DHT22;39042;53.150;5.898;2023-06-14T12:29:29;24.60;81.80
53146;DHT22;39042;53.150;5.898;2023-06-14T12:31:55;24.70;80.80
53146;DHT22;39042;53.150;5.898;2023-06-14T12:34:26;24.70;81.40
53146;DHT22;39042;53.150;5.898;2023-06-14T12:36:53;24.60;81.40
53146;DHT22;39042;53.150;5.898;2023-06-14T12:39:19;24.60;81.80
53146;DHT22;39042;53.150;5.898;2023-06-14T12:41:46;24.40;82.00
53146;DHT22;39042;53.150;5.898;2023-06-14T12:44:13;24.40;82.40
53146;DHT22;39042;53.150;5.898;2023-06-14T12:46:39;24.40;82.20
53146;DHT22;39042;53.150;5.898;2023-06-14T12:49:07;24.40;82.70
53146;DHT22;39042;53.150;5.898;2023-06-14T12:51:33;24.60;82.70
53146;DHT22;39042;53.150;5.898;2023-06-14T12:53:59;24.60;82.70
53146;DHT22;39042;53.150;5.898;2023-06-14T12:56:25;24.70;81.80
53146;DHT22;39042;53.150;5.898;2023-06-14T12:58:52;24.60;81.40
53146;DHT22;39042;53.150;5.898;2023-06-14T13:01:18;24.60;81.60
53146;DHT22;39042;53.150;5.898;2023-06-14T13:03:46;24.60;81.50
53146;DHT22;39042;53.150;5.898;2023-06-14T13:06:12;24.70;81.70
53146;DHT22;39042;53.150;5.898;2023-06-14T13:08:37;24.80;81.30
53146;DHT22;39042;53.150;5.898;2023-06-14T13:11:03;24.90;81.50
53146;DHT22;39042;53.150;5.898;2023-06-14T13:13:29;25.00;79.80
53146;DHT22;39042;53.150;5.898;2023-06-14T13:15:55;25.00;79.40
53146;DHT22;39042;53.150;5.898;2023-06-14T13:18:21;25.00;80.00
53146;DHT22;39042;53.150;5.898;2023-06-14T13:20:47;25.10;79.60
53146;DHT22;39042;53.150;5.898;2023-06-14T13:23:13;25.30;79.10
53146;DHT22;39042;53.150;5.898;2023-06-14T13:25:39;25.50;79.30
53146;DHT22;39042;53.150;5.898;2023-06-14T13:28:05;25.60;78.70
53146;DHT22;39042;53.150;5.898;2023-06-14T13:30:32;25.60;78.40
53146;DHT22;39042;53.150;5.898;2023-06-14T13:32:58;25.60;78.70
53146;DHT22;39042;53.150;5.898;2023-06-14T13:35:24;25.60;78.30
53146;DHT22;39042;53.150;5.898;2023-06-14T13:37:51;25.40;78.30
53146;DHT22;39042;53.150;5.898;2023-06-14T13:40:16;25.30;78.40
53146;DHT22;39042;53.150;5.898;2023-06-14T13:42:42;25.20;78.00
53146;DHT22;39042;53.150;5.898;2023-06-14T13:45:11;25.10;78.10
53146;DHT22;39042;53.150;5.898;2023-06-14T13:47:37;25.10;78.50
53146;DHT22;39042;53.150;5.898;2023-06-14T13:50:03;25.10;79.40
53146;DHT22;39042;53.150;5.898;2023-06-14T13:52:29;25.10;77.60
53146;DHT22;39042;53.150;5.898;2023-06-14T13:54:55;25.10;79.00
53146;DHT22;39042;53.150;5.898;2023-06-14T13:57:21;25.10;78.70
53146;DHT22;39042;53.150;5.898;2023-06-14T13:59:47;25.10;78.60
53146;DHT22;39042;53.150;5.898;2023-06-14T14:02:18;25.10;78.60
53146;DHT22;39042;53.150;5.898;2023-06-14T14:04:55;25.10;77.90
53146;DHT22;39042;53.150;5.898;2023-06-14T14:07:21;25.20;77.80
53146;DHT22;39042;53.150;5.898;2023-06-14T14:09:48;25.40;78.60
53146;DHT22;39042;53.150;5.898;2023-06-14T14:12:13;25.60;79.40
53146;DHT22;39042;53.150;5.898;2023-06-14T14:14:42;25.60;78.50
53146;DHT22;39042;53.150;5.898;2023-06-14T14:17:08;25.70;78.10
53146;DHT22;39042;53.150;5.898;2023-06-14T14:19:34;25.70;77.50
53146;DHT22;39042;53.150;5.898;2023-06-14T14:22:00;25.70;77.20
53146;DHT22;39042;53.150;5.898;2023-06-14T14:24:26;25.70;77.60
53146;DHT22;39042;53.150;5.898;2023-06-14T14:26:52;25.70;77.50
53146;DHT22;39042;53.150;5.898;2023-06-14T14:29:19;25.80;77.10
53146;DHT22;39042;53.150;5.898;2023-06-14T14:31:45;25.90;77.10
53146;DHT22;39042;53.150;5.898;2023-06-14T14:34:11;25.90;76.50
53146;DHT22;39042;53.150;5.898;2023-06-14T14:36:37;26.00;76.30
53146;DHT22;39042;53.150;5.898;2023-06-14T14:39:08;26.00;75.40
53146;DHT22;39042;53.150;5.898;2023-06-14T14:41:34;25.80;75.50
53146;DHT22;39042;53.150;5.898;2023-06-14T14:44:00;25.80;76.20
53146;DHT22;39042;53.150;5.898;2023-06-14T14:46:27;25.80;77.10
53146;DHT22;39042;53.150;5.898;2023-06-14T14:48:53;25.80;76.40
53146;DHT22;39042;53.150;5.898;2023-06-14T14:51:19;25.80;76.30
53146;DHT22;39042;53.150;5.898;2023-06-14T14:53:45;25.70;76.70
53146;DHT22;39042;53.150;5.898;2023-06-14T14:56:11;25.80;77.30
53146;DHT22;39042;53.150;5.898;2023-06-14T14:58:37;25.70;77.20
53146;DHT22;39042;53.150;5.898;2023-06-14T15:01:03;25.90;78.20
53146;DHT22;39042;53.150;5.898;2023-06-14T15:03:31;25.80;86.40
53146;DHT22;39042;53.150;5.898;2023-06-14T15:05:57;25.60;85.30
53146;DHT22;39042;53.150;5.898;2023-06-14T15:08:23;25.40;87.40
53146;DHT22;39042;53.150;5.898;2023-06-14T15:10:48;25.20;88.10
53146;DHT22;39042;53.150;5.898;2023-06-14T15:13:14;24.90;88.70
53146;DHT22;39042;53.150;5.898;2023-06-14T15:15:40;24.60;89.30
53146;DHT22;39042;53.150;5.898;2023-06-14T15:18:06;24.50;89.60
53146;DHT22;39042;53.150;5.898;2023-06-14T15:20:32;24.30;90.00
53146;DHT22;39042;53.150;5.898;2023-06-14T15:23:00;24.30;90.10
53146;DHT22;39042;53.150;5.898;2023-06-14T15:25:30;24.20;90.20
53146;DHT22;39042;53.150;5.898;2023-06-14T15:27:57;24.10;90.40
53146;DHT22;39042;53.150;5.898;2023-06-14T15:30:23;24.10;90.20
53146;DHT22;39042;53.150;5.898;2023-06-14T15:32:49;24.00;90.20
53146;DHT22;39042;53.150;5.898;2023-06-14T15:35:17;24.00;90.50
53146;DHT22;39042;53.150;5.898;2023-06-14T15:37:48;24.00;90.40
53146;DHT22;39042;53.150;5.898;2023-06-14T15:40:14;24.00;90.60
53146;DHT22;39042;53.150;5.898;2023-06-14T15:42:41;24.00;90.60